sensor_id;sensor_type;location;lat;lon;timestamp;P1;durP1;ratioP1;P2;durP2;ratioP2
23376;SDS011;14353;46.070;13.222;2023-12-28T00:00:49;6.00;;;4.93;;
23376;SDS011;14353;46.070;13.222;2023-12-28T00:03:14;5.75;;;5.15;;
23376;SDS011;14353;46.070;13.222;2023-12-28T00:05:40;6.20;;;5.45;;
23376;SDS011;14353;46.070;13.222;2023-12-28T00:08:06;6.50;;;5.38;;
23376;SDS011;14353;46.070;13.222;2023-12-28T00:10:32;6.57;;;5.15;;
23376;SDS011;14353;46.070;13.222;2023-12-28T00:12:57;6.22;;;5.15;;
23376;SDS011;14353;46.070;13.222;2023-12-28T00:15:23;6.05;;;5.28;;
23376;SDS011;14353;46.070;13.222;2023-12-28T00:17:49;5.60;;;5.00;;
23376;SDS011;14353;46.070;13.222;2023-12-28T00:20:14;5.63;;;5.03;;
23376;SDS011;14353;46.070;13.222;2023-12-28T00:22:40;6.63;;;5.78;;
23376;SDS011;14353;46.070;13.222;2023-12-28T00:25:06;7.00;;;5.75;;
23376;SDS011;14353;46.070;13.222;2023-12-28T00:27:32;6.55;;;5.53;;
23376;SDS011;14353;46.070;13.222;2023-12-28T00:30:02;6.30;;;5.60;;
23376;SDS011;14353;46.070;13.222;2023-12-28T00:32:30;5.78;;;5.18;;
23376;SDS011;14353;46.070;13.222;2023-12-28T00:34:55;7.25;;;6.05;;
23376;SDS011;14353;46.070;13.222;2023-12-28T00:37:21;6.15;;;5.55;;
23376;SDS011;14353;46.070;13.222;2023-12-28T00:39:47;6.20;;;5.60;;
23376;SDS011;14353;46.070;13.222;2023-12-28T00:42:15;6.32;;;5.47;;
23376;SDS011;14353;46.070;13.222;2023-12-28T00:44:41;7.05;;;5.53;;
23376;SDS011;14353;46.070;13.222;2023-12-28T00:47:06;7.45;;;5.68;;
23376;SDS011;14353;46.070;13.222;2023-12-28T00:49:32;6.32;;;5.55;;
23376;SDS011;14353;46.070;13.222;2023-12-28T00:51:58;6.50;;;5.80;;
23376;SDS011;14353;46.070;13.222;2023-12-28T00:54:23;6.38;;;5.63;;
23376;SDS011;14353;46.070;13.222;2023-12-28T00:56:49;6.93;;;5.75;;
23376;SDS011;14353;46.070;13.222;2023-12-28T00:59:15;6.70;;;5.43;;
23376;SDS011;14353;46.070;13.222;2023-12-28T01:01:41;6.20;;;5.47;;
23376;SDS011;14353;46.070;13.222;2023-12-28T01:04:06;7.07;;;5.40;;
23376;SDS011;14353;46.070;13.222;2023-12-28T01:06:32;6.80;;;5.55;;
23376;SDS011;14353;46.070;13.222;2023-12-28T01:08:58;6.35;;;5.70;;
23376;SDS011;14353;46.070;13.222;2023-12-28T01:11:23;6.45;;;5.68;;
23376;SDS011;14353;46.070;13.222;2023-12-28T01:13:50;6.15;;;5.55;;
23376;SDS011;14353;46.070;13.222;2023-12-28T01:16:16;7.28;;;6.07;;
23376;SDS011;14353;46.070;13.222;2023-12-28T01:18:42;7.07;;;5.40;;
23376;SDS011;14353;46.070;13.222;2023-12-28T01:21:08;6.30;;;5.55;;
23376;SDS011;14353;46.070;13.222;2023-12-28T01:23:33;6.35;;;5.68;;
23376;SDS011;14353;46.070;13.222;2023-12-28T01:25:59;6.38;;;5.68;;
23376;SDS011;14353;46.070;13.222;2023-12-28T01:28:25;6.57;;;5.80;;
23376;SDS011;14353;46.070;13.222;2023-12-28T01:30:51;9.18;;;6.15;;
23376;SDS011;14353;46.070;13.222;2023-12-28T01:33:17;6.07;;;5.43;;
23376;SDS011;14353;46.070;13.222;2023-12-28T01:35:43;6.75;;;6.05;;
23376;SDS011;14353;46.070;13.222;2023-12-28T01:38:08;6.60;;;5.68;;
23376;SDS011;14353;46.070;13.222;2023-12-28T01:40:34;7.30;;;5.85;;
23376;SDS011;14353;46.070;13.222;2023-12-28T01:43:00;5.97;;;5.38;;
23376;SDS011;14353;46.070;13.222;2023-12-28T01:45:26;7.90;;;6.18;;
23376;SDS011;14353;46.070;13.222;2023-12-28T01:47:52;6.20;;;5.60;;
23376;SDS011;14353;46.070;13.222;2023-12-28T01:50:20;6.28;;;5.68;;
23376;SDS011;14353;46.070;13.222;2023-12-28T01:52:48;6.10;;;5.50;;
23376;SDS011;14353;46.070;13.222;2023-12-28T01:55:15;6.95;;;5.85;;
23376;SDS011;14353;46.070;13.222;2023-12-28T01:57:42;7.15;;;5.55;;
23376;SDS011;14353;46.070;13.222;2023-12-28T02:00:08;6.80;;;5.82;;
23376;SDS011;14353;46.070;13.222;2023-12-28T02:02:34;6.55;;;5.57;;
23376;SDS011;14353;46.070;13.222;2023-12-28T02:05:01;6.00;;;5.40;;
23376;SDS011;14353;46.070;13.222;2023-12-28T02:07:27;6.78;;;5.70;;
23376;SDS011;14353;46.070;13.222;2023-12-28T02:09:54;7.97;;;6.05;;
23376;SDS011;14353;46.070;13.222;2023-12-28T02:12:20;7.35;;;5.85;;
23376;SDS011;14353;46.070;13.222;2023-12-28T02:14:46;7.18;;;6.07;;
23376;SDS011;14353;46.070;13.222;2023-12-28T02:20:10;6.78;;;6.15;;
23376;SDS011;14353;46.070;13.222;2023-12-28T02:22:37;6.57;;;5.57;;
23376;SDS011;14353;46.070;13.222;2023-12-28T02:30:07;7.43;;;6.15;;
23376;SDS011;14353;46.070;13.222;2023-12-28T02:32:39;7.55;;;6.10;;
23376;SDS011;14353;46.070;13.222;2023-12-28T02:35:14;7.53;;;6.00;;
23376;SDS011;14353;46.070;13.222;2023-12-28T02:37:44;7.68;;;6.25;;
23376;SDS011;14353;46.070;13.222;2023-12-28T02:40:16;6.85;;;5.78;;
23376;SDS011;14353;46.070;13.222;2023-12-28T02:42:42;7.20;;;5.85;;
23376;SDS011;14353;46.070;13.222;2023-12-28T02:45:08;6.88;;;5.85;;
23376;SDS011;14353;46.070;13.222;2023-12-28T02:47:34;7.03;;;6.00;;
23376;SDS011;14353;46.070;13.222;2023-12-28T02:50:00;7.25;;;5.97;;
23376;SDS011;14353;46.070;13.222;2023-12-28T02:52:25;7.38;;;6.45;;
23376;SDS011;14353;46.070;13.222;2023-12-28T02:54:51;6.97;;;5.80;;
23376;SDS011;14353;46.070;13.222;2023-12-28T02:57:17;6.60;;;5.90;;
23376;SDS011;14353;46.070;13.222;2023-12-28T02:59:45;6.97;;;6.03;;
23376;SDS011;14353;46.070;13.222;2023-12-28T03:02:11;6.63;;;5.93;;
23376;SDS011;14353;46.070;13.222;2023-12-28T03:04:36;6.57;;;5.88;;
23376;SDS011;14353;46.070;13.222;2023-12-28T03:07:02;6.75;;;6.05;;
23376;SDS011;14353;46.070;13.222;2023-12-28T03:09:30;7.10;;;6.05;;
23376;SDS011;14353;46.070;13.222;2023-12-28T03:11:55;6.15;;;5.55;;
23376;SDS011;14353;46.070;13.222;2023-12-28T03:14:21;7.43;;;6.57;;
23376;SDS011;14353;46.070;13.222;2023-12-28T03:16:47;7.80;;;6.25;;
23376;SDS011;14353;46.070;13.222;2023-12-28T03:19:12;7.03;;;6.22;;
23376;SDS011;14353;46.070;13.222;2023-12-28T03:21:39;7.13;;;6.22;;
23376;SDS011;14353;46.070;13.222;2023-12-28T03:24:05;6.40;;;5.75;;
23376;SDS011;14353;46.070;13.222;2023-12-28T03:26:31;7.07;;;5.90;;
23376;SDS011;14353;46.070;13.222;2023-12-28T03:28:57;8.32;;;6.20;;
23376;SDS011;14353;46.070;13.222;2023-12-28T03:31:22;6.68;;;5.97;;
23376;SDS011;14353;46.070;13.222;2023-12-28T03:33:48;7.47;;;6.00;;
23376;SDS011;14353;46.070;13.222;2023-12-28T03:36:17;6.45;;;5.78;;
23376;SDS011;14353;46.070;13.222;2023-12-28T03:38:44;6.47;;;5.85;;
23376;SDS011;14353;46.070;13.222;2023-12-28T03:41:19;6.63;;;5.90;;
23376;SDS011;14353;46.070;13.222;2023-12-28T03:43:45;6.50;;;5.82;;
23376;SDS011;14353;46.070;13.222;2023-12-28T03:46:11;7.53;;;6.72;;
23376;SDS011;14353;46.070;13.222;2023-12-28T03:48:37;7.03;;;6.00;;
23376;SDS011;14353;46.070;13.222;2023-12-28T03:51:04;6.90;;;6.07;;
23376;SDS011;14353;46.070;13.222;2023-12-28T03:53:30;6.82;;;5.72;;
23376;SDS011;14353;46.070;13.222;2023-12-28T03:55:59;7.40;;;6.05;;
23376;SDS011;14353;46.070;13.222;2023-12-28T03:58:25;7.03;;;6.03;;
23376;SDS011;14353;46.070;13.222;2023-12-28T04:00:51;7.07;;;6.20;;
23376;SDS011;14353;46.070;13.222;2023-12-28T04:03:20;6.85;;;6.10;;
23376;SDS011;14353;46.070;13.222;2023-12-28T04:05:46;6.35;;;5.70;;
23376;SDS011;14353;46.070;13.222;2023-12-28T04:08:12;7.10;;;6.10;;
23376;SDS011;14353;46.070;13.222;2023-12-28T04:10:38;6.93;;;5.93;;
23376;SDS011;14353;46.070;13.222;2023-12-28T04:13:04;7.13;;;5.88;;
23376;SDS011;14353;46.070;13.222;2023-12-28T04:15:30;6.30;;;5.70;;
23376;SDS011;14353;46.070;13.222;2023-12-28T04:17:57;7.50;;;6.32;;
23376;SDS011;14353;46.070;13.222;2023-12-28T04:20:23;6.55;;;5.88;;
23376;SDS011;14353;46.070;13.222;2023-12-28T04:22:49;6.72;;;5.93;;
23376;SDS011;14353;46.070;13.222;2023-12-28T04:25:15;6.32;;;5.65;;
23376;SDS011;14353;46.070;13.222;2023-12-28T04:27:43;7.15;;;5.90;;
23376;SDS011;14353;46.070;13.222;2023-12-28T04:30:11;6.63;;;5.93;;
23376;SDS011;14353;46.070;13.222;2023-12-28T04:32:37;6.72;;;6.03;;
23376;SDS011;14353;46.070;13.222;2023-12-28T04:35:04;6.55;;;5.85;;
23376;SDS011;14353;46.070;13.222;2023-12-28T04:37:31;6.60;;;5.70;;
23376;SDS011;14353;46.070;13.222;2023-12-28T04:39:57;6.70;;;5.97;;
23376;SDS011;14353;46.070;13.222;2023-12-28T04:42:23;6.70;;;5.82;;
23376;SDS011;14353;46.070;13.222;2023-12-28T04:44:49;6.85;;;6.15;;
23376;SDS011;14353;46.070;13.222;2023-12-28T04:47:14;6.30;;;5.70;;
23376;SDS011;14353;46.070;13.222;2023-12-28T04:49:40;6.50;;;5.80;;
23376;SDS011;14353;46.070;13.222;2023-12-28T04:52:06;6.25;;;5.53;;
23376;SDS011;14353;46.070;13.222;2023-12-28T04:54:31;6.75;;;5.97;;
23376;SDS011;14353;46.070;13.222;2023-12-28T04:56:58;6.43;;;5.82;;
23376;SDS011;14353;46.070;13.222;2023-12-28T04:59:24;6.25;;;5.65;;
23376;SDS011;14353;46.070;13.222;2023-12-28T05:01:50;7.30;;;6.10;;
23376;SDS011;14353;46.070;13.222;2023-12-28T05:04:16;6.82;;;6.00;;
23376;SDS011;14353;46.070;13.222;2023-12-28T05:06:42;6.88;;;6.13;;
23376;SDS011;14353;46.070;13.222;2023-12-28T05:09:08;6.63;;;5.65;;
23376;SDS011;14353;46.070;13.222;2023-12-28T05:11:33;6.88;;;6.03;;
23376;SDS011;14353;46.070;13.222;2023-12-28T05:13:59;6.68;;;5.95;;
23376;SDS011;14353;46.070;13.222;2023-12-28T05:16:25;7.35;;;6.28;;
23376;SDS011;14353;46.070;13.222;2023-12-28T05:18:50;6.95;;;6.10;;
23376;SDS011;14353;46.070;13.222;2023-12-28T05:21:16;6.82;;;6.13;;
23376;SDS011;14353;46.070;13.222;2023-12-28T05:23:42;7.80;;;6.00;;
23376;SDS011;14353;46.070;13.222;2023-12-28T05:26:07;6.38;;;5.78;;
23376;SDS011;14353;46.070;13.222;2023-12-28T05:28:33;8.18;;;5.82;;
23376;SDS011;14353;46.070;13.222;2023-12-28T05:30:58;6.72;;;5.90;;
23376;SDS011;14353;46.070;13.222;2023-12-28T05:33:25;6.95;;;5.90;;
23376;SDS011;14353;46.070;13.222;2023-12-28T05:35:50;6.20;;;5.60;;
23376;SDS011;14353;46.070;13.222;2023-12-28T05:38:16;7.70;;;6.45;;
23376;SDS011;14353;46.070;13.222;2023-12-28T05:40:42;6.53;;;5.78;;
23376;SDS011;14353;46.070;13.222;2023-12-28T05:43:09;6.57;;;5.93;;
23376;SDS011;14353;46.070;13.222;2023-12-28T05:45:36;6.28;;;5.68;;
23376;SDS011;14353;46.070;13.222;2023-12-28T05:48:02;6.63;;;5.95;;
23376;SDS011;14353;46.070;13.222;2023-12-28T05:50:28;6.93;;;5.93;;
23376;SDS011;14353;46.070;13.222;2023-12-28T05:52:53;6.97;;;5.50;;
23376;SDS011;14353;46.070;13.222;2023-12-28T05:55:20;6.32;;;5.72;;
23376;SDS011;14353;46.070;13.222;2023-12-28T05:57:45;6.75;;;6.15;;
23376;SDS011;14353;46.070;13.222;2023-12-28T06:00:12;7.20;;;6.15;;
23376;SDS011;14353;46.070;13.222;2023-12-28T06:02:39;6.38;;;5.50;;
23376;SDS011;14353;46.070;13.222;2023-12-28T06:05:05;6.50;;;5.80;;
23376;SDS011;14353;46.070;13.222;2023-12-28T06:07:31;6.80;;;6.05;;
23376;SDS011;14353;46.070;13.222;2023-12-28T06:09:57;7.20;;;5.85;;
23376;SDS011;14353;46.070;13.222;2023-12-28T06:12:22;6.82;;;5.93;;
23376;SDS011;14353;46.070;13.222;2023-12-28T06:14:48;6.38;;;5.78;;
23376;SDS011;14353;46.070;13.222;2023-12-28T06:17:14;5.95;;;5.45;;
23376;SDS011;14353;46.070;13.222;2023-12-28T06:19:43;6.10;;;5.50;;
23376;SDS011;14353;46.070;13.222;2023-12-28T06:22:09;6.63;;;5.63;;
23376;SDS011;14353;46.070;13.222;2023-12-28T06:24:38;6.60;;;5.50;;
23376;SDS011;14353;46.070;13.222;2023-12-28T06:27:05;6.82;;;6.13;;
23376;SDS011;14353;46.070;13.222;2023-12-28T06:29:31;7.40;;;6.03;;
23376;SDS011;14353;46.070;13.222;2023-12-28T06:31:56;6.50;;;5.88;;
23376;SDS011;14353;46.070;13.222;2023-12-28T06:34:22;6.13;;;5.53;;
23376;SDS011;14353;46.070;13.222;2023-12-28T06:36:48;6.50;;;5.80;;
23376;SDS011;14353;46.070;13.222;2023-12-28T06:39:13;7.13;;;6.32;;
23376;SDS011;14353;46.070;13.222;2023-12-28T06:41:39;6.57;;;5.68;;
23376;SDS011;14353;46.070;13.222;2023-12-28T06:44:05;6.65;;;5.97;;
23376;SDS011;14353;46.070;13.222;2023-12-28T06:46:30;6.20;;;5.47;;
23376;SDS011;14353;46.070;13.222;2023-12-28T06:48:56;6.60;;;5.60;;
23376;SDS011;14353;46.070;13.222;2023-12-28T06:51:24;6.70;;;5.90;;
23376;SDS011;14353;46.070;13.222;2023-12-28T06:53:50;6.45;;;5.85;;
23376;SDS011;14353;46.070;13.222;2023-12-28T06:56:16;6.20;;;5.60;;
23376;SDS011;14353;46.070;13.222;2023-12-28T06:58:42;6.45;;;5.70;;
23376;SDS011;14353;46.070;13.222;2023-12-28T07:01:08;6.18;;;5.57;;
23376;SDS011;14353;46.070;13.222;2023-12-28T07:03:33;6.45;;;5.65;;
23376;SDS011;14353;46.070;13.222;2023-12-28T07:05:59;6.53;;;5.50;;
23376;SDS011;14353;46.070;13.222;2023-12-28T07:08:25;6.30;;;5.38;;
23376;SDS011;14353;46.070;13.222;2023-12-28T07:10:51;5.97;;;5.38;;
23376;SDS011;14353;46.070;13.222;2023-12-28T07:13:17;7.05;;;6.00;;
23376;SDS011;14353;46.070;13.222;2023-12-28T07:15:42;5.68;;;5.00;;
23376;SDS011;14353;46.070;13.222;2023-12-28T07:18:08;6.55;;;5.90;;
23376;SDS011;14353;46.070;13.222;2023-12-28T07:20:34;6.25;;;5.65;;
23376;SDS011;14353;46.070;13.222;2023-12-28T07:22:59;6.13;;;5.53;;
23376;SDS011;14353;46.070;13.222;2023-12-28T07:25:25;7.18;;;6.30;;
23376;SDS011;14353;46.070;13.222;2023-12-28T07:27:51;6.45;;;5.85;;
23376;SDS011;14353;46.070;13.222;2023-12-28T07:30:17;5.90;;;5.25;;
23376;SDS011;14353;46.070;13.222;2023-12-28T07:32:43;7.00;;;5.38;;
23376;SDS011;14353;46.070;13.222;2023-12-28T07:35:09;5.90;;;5.30;;
23376;SDS011;14353;46.070;13.222;2023-12-28T07:37:35;6.70;;;5.78;;
23376;SDS011;14353;46.070;13.222;2023-12-28T07:40:02;6.10;;;5.50;;
23376;SDS011;14353;46.070;13.222;2023-12-28T07:42:28;6.85;;;5.68;;
23376;SDS011;14353;46.070;13.222;2023-12-28T07:44:54;6.35;;;5.70;;
23376;SDS011;14353;46.070;13.222;2023-12-28T07:47:20;6.40;;;5.68;;
23376;SDS011;14353;46.070;13.222;2023-12-28T07:49:46;6.40;;;5.80;;
23376;SDS011;14353;46.070;13.222;2023-12-28T07:52:11;6.00;;;5.40;;
23376;SDS011;14353;46.070;13.222;2023-12-28T07:54:37;5.95;;;5.35;;
23376;SDS011;14353;46.070;13.222;2023-12-28T07:57:03;6.32;;;5.72;;
23376;SDS011;14353;46.070;13.222;2023-12-28T07:59:29;6.10;;;5.50;;
23376;SDS011;14353;46.070;13.222;2023-12-28T08:01:55;6.25;;;5.50;;
23376;SDS011;14353;46.070;13.222;2023-12-28T08:04:21;6.63;;;5.63;;
23376;SDS011;14353;46.070;13.222;2023-12-28T08:06:46;6.05;;;5.45;;
23376;SDS011;14353;46.070;13.222;2023-12-28T08:09:12;6.57;;;5.57;;
23376;SDS011;14353;46.070;13.222;2023-12-28T08:11:38;5.90;;;5.25;;
23376;SDS011;14353;46.070;13.222;2023-12-28T08:14:03;6.32;;;5.47;;
23376;SDS011;14353;46.070;13.222;2023-12-28T08:16:30;6.63;;;5.90;;
23376;SDS011;14353;46.070;13.222;2023-12-28T08:18:55;6.00;;;5.40;;
23376;SDS011;14353;46.070;13.222;2023-12-28T08:21:21;6.43;;;5.82;;
23376;SDS011;14353;46.070;13.222;2023-12-28T08:23:47;5.97;;;5.38;;
23376;SDS011;14353;46.070;13.222;2023-12-28T08:26:12;6.25;;;5.65;;
23376;SDS011;14353;46.070;13.222;2023-12-28T08:28:38;6.03;;;5.35;;
23376;SDS011;14353;46.070;13.222;2023-12-28T08:31:04;6.18;;;5.55;;
23376;SDS011;14353;46.070;13.222;2023-12-28T08:33:29;6.30;;;5.68;;
23376;SDS011;14353;46.070;13.222;2023-12-28T08:35:55;6.20;;;5.60;;
23376;SDS011;14353;46.070;13.222;2023-12-28T08:38:21;6.10;;;5.43;;
23376;SDS011;14353;46.070;13.222;2023-12-28T08:40:46;6.72;;;5.70;;
23376;SDS011;14353;46.070;13.222;2023-12-28T08:43:12;6.45;;;5.63;;
23376;SDS011;14353;46.070;13.222;2023-12-28T08:45:37;6.10;;;5.50;;
23376;SDS011;14353;46.070;13.222;2023-12-28T08:48:03;6.00;;;5.40;;
23376;SDS011;14353;46.070;13.222;2023-12-28T08:50:30;6.93;;;5.43;;
23376;SDS011;14353;46.070;13.222;2023-12-28T08:52:58;6.95;;;5.30;;
23376;SDS011;14353;46.070;13.222;2023-12-28T08:55:24;6.13;;;5.53;;
23376;SDS011;14353;46.070;13.222;2023-12-28T08:57:49;5.70;;;5.10;;
23376;SDS011;14353;46.070;13.222;2023-12-28T09:00:15;5.72;;;5.22;;
23376;SDS011;14353;46.070;13.222;2023-12-28T09:02:42;5.85;;;5.25;;
23376;SDS011;14353;46.070;13.222;2023-12-28T09:05:08;5.90;;;5.30;;
23376;SDS011;14353;46.070;13.222;2023-12-28T09:07:35;6.65;;;5.80;;
23376;SDS011;14353;46.070;13.222;2023-12-28T09:10:03;5.90;;;5.22;;
23376;SDS011;14353;46.070;13.222;2023-12-28T09:12:30;6.63;;;5.65;;
23376;SDS011;14353;46.070;13.222;2023-12-28T09:14:55;6.30;;;5.40;;
23376;SDS011;14353;46.070;13.222;2023-12-28T09:17:21;6.40;;;5.60;;
23376;SDS011;14353;46.070;13.222;2023-12-28T09:19:47;6.68;;;5.95;;
23376;SDS011;14353;46.070;13.222;2023-12-28T09:22:13;5.97;;;5.10;;
23376;SDS011;14353;46.070;13.222;2023-12-28T09:24:39;7.25;;;5.75;;
23376;SDS011;14353;46.070;13.222;2023-12-28T09:27:05;6.85;;;5.65;;
23376;SDS011;14353;46.070;13.222;2023-12-28T09:29:31;6.55;;;5.55;;
23376;SDS011;14353;46.070;13.222;2023-12-28T09:31:56;5.30;;;4.80;;
23376;SDS011;14353;46.070;13.222;2023-12-28T09:34:22;6.13;;;5.50;;
23376;SDS011;14353;46.070;13.222;2023-12-28T09:36:48;6.57;;;5.90;;
23376;SDS011;14353;46.070;13.222;2023-12-28T09:39:13;5.90;;;5.18;;
23376;SDS011;14353;46.070;13.222;2023-12-28T09:41:40;8.75;;;4.97;;
23376;SDS011;14353;46.070;13.222;2023-12-28T09:44:12;6.40;;;5.65;;
23376;SDS011;14353;46.070;13.222;2023-12-28T09:46:42;6.10;;;5.30;;
23376;SDS011;14353;46.070;13.222;2023-12-28T09:49:09;6.53;;;4.80;;
23376;SDS011;14353;46.070;13.222;2023-12-28T09:51:36;6.07;;;4.95;;
23376;SDS011;14353;46.070;13.222;2023-12-28T09:54:05;6.20;;;5.03;;
23376;SDS011;14353;46.070;13.222;2023-12-28T09:56:31;6.60;;;5.28;;
23376;SDS011;14353;46.070;13.222;2023-12-28T09:58:57;8.32;;;5.65;;
23376;SDS011;14353;46.070;13.222;2023-12-28T10:01:24;5.68;;;5.07;;
23376;SDS011;14353;46.070;13.222;2023-12-28T10:03:50;6.97;;;5.63;;
23376;SDS011;14353;46.070;13.222;2023-12-28T10:06:16;6.72;;;5.70;;
23376;SDS011;14353;46.070;13.222;2023-12-28T10:08:48;6.30;;;5.45;;
23376;SDS011;14353;46.070;13.222;2023-12-28T10:11:15;6.63;;;5.60;;
23376;SDS011;14353;46.070;13.222;2023-12-28T10:13:42;6.38;;;5.15;;
23376;SDS011;14353;46.070;13.222;2023-12-28T10:16:12;6.60;;;5.38;;
23376;SDS011;14353;46.070;13.222;2023-12-28T10:18:44;6.78;;;5.43;;
23376;SDS011;14353;46.070;13.222;2023-12-28T10:21:11;6.93;;;5.05;;
23376;SDS011;14353;46.070;13.222;2023-12-28T10:23:38;7.53;;;5.43;;
23376;SDS011;14353;46.070;13.222;2023-12-28T10:26:04;7.10;;;5.30;;
23376;SDS011;14353;46.070;13.222;2023-12-28T10:28:34;7.28;;;5.53;;
23376;SDS011;14353;46.070;13.222;2023-12-28T10:31:01;6.03;;;5.43;;
23376;SDS011;14353;46.070;13.222;2023-12-28T10:33:27;6.13;;;5.15;;
23376;SDS011;14353;46.070;13.222;2023-12-28T10:35:52;6.10;;;5.28;;
23376;SDS011;14353;46.070;13.222;2023-12-28T10:38:23;6.60;;;5.22;;
23376;SDS011;14353;46.070;13.222;2023-12-28T10:40:53;5.90;;;4.82;;
23376;SDS011;14353;46.070;13.222;2023-12-28T10:43:19;5.65;;;5.07;;
23376;SDS011;14353;46.070;13.222;2023-12-28T10:45:49;8.90;;;5.75;;
23376;SDS011;14353;46.070;13.222;2023-12-28T10:48:18;7.20;;;5.75;;
23376;SDS011;14353;46.070;13.222;2023-12-28T10:50:53;5.93;;;5.30;;
23376;SDS011;14353;46.070;13.222;2023-12-28T10:56:20;5.80;;;4.90;;
23376;SDS011;14353;46.070;13.222;2023-12-28T10:59:35;5.50;;;4.90;;
23376;SDS011;14353;46.070;13.222;2023-12-28T11:02:01;9.35;;;5.15;;
23376;SDS011;14353;46.070;13.222;2023-12-28T11:04:39;5.80;;;5.05;;
23376;SDS011;14353;46.070;13.222;2023-12-28T11:07:08;6.20;;;5.50;;
23376;SDS011;14353;46.070;13.222;2023-12-28T11:09:36;5.63;;;5.10;;
23376;SDS011;14353;46.070;13.222;2023-12-28T11:12:03;5.95;;;5.30;;
23376;SDS011;14353;46.070;13.222;2023-12-28T11:14:32;6.85;;;5.28;;
23376;SDS011;14353;46.070;13.222;2023-12-28T11:16:59;8.50;;;5.57;;
23376;SDS011;14353;46.070;13.222;2023-12-28T11:19:26;6.53;;;5.25;;
23376;SDS011;14353;46.070;13.222;2023-12-28T11:21:53;6.97;;;5.60;;
23376;SDS011;14353;46.070;13.222;2023-12-28T11:24:21;7.05;;;5.43;;
23376;SDS011;14353;46.070;13.222;2023-12-28T11:26:54;6.40;;;5.05;;
23376;SDS011;14353;46.070;13.222;2023-12-28T11:29:20;6.95;;;5.53;;
23376;SDS011;14353;46.070;13.222;2023-12-28T11:31:52;6.07;;;5.35;;
23376;SDS011;14353;46.070;13.222;2023-12-28T11:34:24;6.28;;;5.13;;
23376;SDS011;14353;46.070;13.222;2023-12-28T11:36:51;6.80;;;5.55;;
23376;SDS011;14353;46.070;13.222;2023-12-28T11:39:20;5.60;;;5.10;;
23376;SDS011;14353;46.070;13.222;2023-12-28T11:42:03;6.50;;;5.30;;
23376;SDS011;14353;46.070;13.222;2023-12-28T11:44:31;6.68;;;5.30;;
23376;SDS011;14353;46.070;13.222;2023-12-28T11:47:11;6.80;;;5.05;;
23376;SDS011;14353;46.070;13.222;2023-12-28T11:49:41;6.30;;;5.20;;
23376;SDS011;14353;46.070;13.222;2023-12-28T11:52:07;8.43;;;5.70;;
23376;SDS011;14353;46.070;13.222;2023-12-28T11:54:34;5.93;;;5.30;;
23376;SDS011;14353;46.070;13.222;2023-12-28T11:57:00;6.35;;;5.10;;
23376;SDS011;14353;46.070;13.222;2023-12-28T11:59:25;5.88;;;5.28;;
23376;SDS011;14353;46.070;13.222;2023-12-28T12:01:51;9.07;;;5.63;;
23376;SDS011;14353;46.070;13.222;2023-12-28T12:04:18;6.13;;;5.15;;
23376;SDS011;14353;46.070;13.222;2023-12-28T12:06:45;6.22;;;5.18;;
23376;SDS011;14353;46.070;13.222;2023-12-28T12:09:15;5.53;;;5.03;;
23376;SDS011;14353;46.070;13.222;2023-12-28T12:11:41;6.25;;;5.50;;
23376;SDS011;14353;46.070;13.222;2023-12-28T12:14:10;5.80;;;5.18;;
23376;SDS011;14353;46.070;13.222;2023-12-28T12:16:36;5.82;;;5.18;;
23376;SDS011;14353;46.070;13.222;2023-12-28T12:19:06;8.00;;;5.38;;
23376;SDS011;14353;46.070;13.222;2023-12-28T12:21:32;7.07;;;5.05;;
23376;SDS011;14353;46.070;13.222;2023-12-28T12:23:59;5.75;;;4.93;;
23376;SDS011;14353;46.070;13.222;2023-12-28T12:26:26;5.85;;;5.25;;
23376;SDS011;14353;46.070;13.222;2023-12-28T12:28:52;5.80;;;5.20;;
23376;SDS011;14353;46.070;13.222;2023-12-28T12:31:18;6.05;;;5.30;;
23376;SDS011;14353;46.070;13.222;2023-12-28T12:33:47;5.68;;;4.97;;
23376;SDS011;14353;46.070;13.222;2023-12-28T12:36:13;5.90;;;5.25;;
23376;SDS011;14353;46.070;13.222;2023-12-28T12:38:39;6.18;;;5.55;;
23376;SDS011;14353;46.070;13.222;2023-12-28T12:41:05;6.57;;;5.30;;
23376;SDS011;14353;46.070;13.222;2023-12-28T12:43:33;5.82;;;5.22;;
23376;SDS011;14353;46.070;13.222;2023-12-28T12:45:59;6.15;;;5.07;;
23376;SDS011;14353;46.070;13.222;2023-12-28T12:48:25;5.35;;;4.85;;
23376;SDS011;14353;46.070;13.222;2023-12-28T12:50:51;6.90;;;4.78;;
23376;SDS011;14353;46.070;13.222;2023-12-28T12:53:17;6.35;;;5.00;;
23376;SDS011;14353;46.070;13.222;2023-12-28T12:55:42;6.22;;;4.80;;
23376;SDS011;14353;46.070;13.222;2023-12-28T12:58:10;6.32;;;4.75;;
23376;SDS011;14353;46.070;13.222;2023-12-28T13:00:37;5.55;;;4.80;;
23376;SDS011;14353;46.070;13.222;2023-12-28T13:03:07;7.00;;;4.95;;
23376;SDS011;14353;46.070;13.222;2023-12-28T13:05:35;7.03;;;5.10;;
23376;SDS011;14353;46.070;13.222;2023-12-28T13:08:06;8.07;;;5.57;;
23376;SDS011;14353;46.070;13.222;2023-12-28T13:10:32;7.32;;;5.00;;
23376;SDS011;14353;46.070;13.222;2023-12-28T13:12:57;7.03;;;5.25;;
23376;SDS011;14353;46.070;13.222;2023-12-28T13:15:23;5.30;;;4.80;;
23376;SDS011;14353;46.070;13.222;2023-12-28T13:17:49;5.80;;;5.15;;
23376;SDS011;14353;46.070;13.222;2023-12-28T13:20:14;5.20;;;4.70;;
23376;SDS011;14353;46.070;13.222;2023-12-28T13:22:40;6.43;;;4.97;;
23376;SDS011;14353;46.070;13.222;2023-12-28T13:25:06;5.55;;;4.95;;
23376;SDS011;14353;46.070;13.222;2023-12-28T13:27:31;6.53;;;5.22;;
23376;SDS011;14353;46.070;13.222;2023-12-28T13:29:58;5.90;;;5.00;;
23376;SDS011;14353;46.070;13.222;2023-12-28T13:32:24;6.78;;;5.13;;
23376;SDS011;14353;46.070;13.222;2023-12-28T13:34:50;5.57;;;4.93;;
23376;SDS011;14353;46.070;13.222;2023-12-28T13:37:16;5.50;;;4.82;;
23376;SDS011;14353;46.070;13.222;2023-12-28T13:39:42;6.45;;;5.47;;
23376;SDS011;14353;46.070;13.222;2023-12-28T13:42:08;6.40;;;5.03;;
23376;SDS011;14353;46.070;13.222;2023-12-28T13:44:34;5.93;;;4.93;;
23376;SDS011;14353;46.070;13.222;2023-12-28T13:47:01;5.50;;;4.78;;
23376;SDS011;14353;46.070;13.222;2023-12-28T13:49:27;5.80;;;5.10;;
23376;SDS011;14353;46.070;13.222;2023-12-28T13:51:53;6.55;;;5.13;;
23376;SDS011;14353;46.070;13.222;2023-12-28T13:54:18;5.60;;;4.82;;
23376;SDS011;14353;46.070;13.222;2023-12-28T13:56:44;6.85;;;4.80;;
23376;SDS011;14353;46.070;13.222;2023-12-28T13:59:10;5.50;;;4.70;;
23376;SDS011;14353;46.070;13.222;2023-12-28T14:01:37;5.57;;;4.82;;
23376;SDS011;14353;46.070;13.222;2023-12-28T14:04:03;5.72;;;5.10;;
23376;SDS011;14353;46.070;13.222;2023-12-28T14:06:29;6.75;;;4.78;;
23376;SDS011;14353;46.070;13.222;2023-12-28T14:08:55;6.20;;;5.20;;
23376;SDS011;14353;46.070;13.222;2023-12-28T14:11:22;6.03;;;4.97;;
23376;SDS011;14353;46.070;13.222;2023-12-28T14:13:51;6.07;;;5.13;;
23376;SDS011;14353;46.070;13.222;2023-12-28T14:16:16;6.18;;;5.00;;
23376;SDS011;14353;46.070;13.222;2023-12-28T14:18:42;5.63;;;4.88;;
23376;SDS011;14353;46.070;13.222;2023-12-28T14:21:08;5.63;;;4.78;;
23376;SDS011;14353;46.070;13.222;2023-12-28T14:23:34;5.47;;;4.90;;
23376;SDS011;14353;46.070;13.222;2023-12-28T14:26:13;5.65;;;5.05;;
23376;SDS011;14353;46.070;13.222;2023-12-28T14:28:41;5.18;;;4.68;;
23376;SDS011;14353;46.070;13.222;2023-12-28T14:31:10;5.35;;;4.82;;
23376;SDS011;14353;46.070;13.222;2023-12-28T14:33:37;5.97;;;4.80;;
23376;SDS011;14353;46.070;13.222;2023-12-28T14:36:13;6.78;;;5.13;;
23376;SDS011;14353;46.070;13.222;2023-12-28T14:39:06;6.25;;;5.05;;
23376;SDS011;14353;46.070;13.222;2023-12-28T14:41:33;6.72;;;4.85;;